Farmington, NM (87401)

2:24 AM MDT on September 29, 2016 (GMT -0600)
East Mesa Verde Avenue | | Change Station

Elev 5452 ft 36.74 °N, 108.19 °W | Updated 2 minutes ago

Overcast
Overcast
63.7 °F
Feels Like 63.7 °F
N
0.6
Wind Variable Wind from NE
Gusts 1.9 mph

Today
High -- | Low -- °F
--% Chance of Precip.
Yesterday
High -- | Low -- °F
Precip. -- in
Pressure 30.19 in
Visibility 10.0 miles
Clouds Few 6500 ft
Overcast 9000 ft
Dew Point 51 °F
Humidity 62%
Rainfall 0.00 in
Snow Depth Not available.
7:06 AM 6:58 PM
Waning Crescent, 3% visible
METAR KFMN 290753Z AUTO 17003KT 10SM FEW065 OVC090 17/09 A3035 RMK AO2 SLP224 T01720094 $
Pressure 30.19 in
Visibility 10.0 miles
Clouds Few 6500 ft
Overcast 9000 ft
Dew Point 51 °F
Humidity 62%
Rainfall 0.00 in
Snow Depth Not available.
7:06 AM 6:58 PM
Waning Crescent, 3% visible
METAR KFMN 290753Z AUTO 17003KT 10SM FEW065 OVC090 17/09 A3035 RMK AO2 SLP224 T01720094 $

10-Day Weather Forecast

Almanac

Astronomy

Sep. 29, 2016 Rise Set
Actual Time
Civil Twilight
Nautical Twilight
Astronomical Twilight
Moon
Length of Visible Light
Length of Day
Tomorrow will be .
, % of the Moon is Illuminated

Today's Extremes

State Highs State Lows

Community

WunderPhotos

Upload Photos

1,942,446 photos uploaded!

WunderBlog® & News

Nearby

Air Quality

  Air Quality AQ Index Pollutant
Not available.

Snow Depth

Station Depth Elevation

Earthquake Activity

City Distance Mag. Time & Date
Minimum magnitude displayed is 2.5.

Coastal Water Temperatures

Place Temperature

Stations

Nearby Weather Stations

Station Location Temp. Windchill Dew Point Humidity Wind Precip. Elev Updated Type
                   

Watches & Warnings

There are currently no watches in effect.